sensor_id;sensor_type;location;lat;lon;timestamp;P1;durP1;ratioP1;P2;durP2;ratioP2
17310;SDS011;8773;43.300;0.394;2023-12-04T00:01:32;9.40;;;8.13;;
17310;SDS011;8773;43.300;0.394;2023-12-04T00:04:01;8.77;;;7.87;;
17310;SDS011;8773;43.300;0.394;2023-12-04T00:06:30;9.70;;;8.70;;
17310;SDS011;8773;43.300;0.394;2023-12-04T00:08:57;9.47;;;8.53;;
17310;SDS011;8773;43.300;0.394;2023-12-04T00:11:24;9.47;;;8.50;;
17310;SDS011;8773;43.300;0.394;2023-12-04T00:13:51;9.93;;;8.93;;
17310;SDS011;8773;43.300;0.394;2023-12-04T00:16:19;10.37;;;8.67;;
17310;SDS011;8773;43.300;0.394;2023-12-04T00:18:46;10.10;;;9.20;;
17310;SDS011;8773;43.300;0.394;2023-12-04T00:21:14;11.20;;;8.80;;
17310;SDS011;8773;43.300;0.394;2023-12-04T00:23:43;10.30;;;9.27;;
17310;SDS011;8773;43.300;0.394;2023-12-04T00:26:11;9.93;;;9.03;;
17310;SDS011;8773;43.300;0.394;2023-12-04T00:28:38;9.53;;;8.57;;
17310;SDS011;8773;43.300;0.394;2023-12-04T00:31:06;9.07;;;8.27;;
17310;SDS011;8773;43.300;0.394;2023-12-04T00:33:33;10.00;;;8.97;;
17310;SDS011;8773;43.300;0.394;2023-12-04T00:36:01;9.87;;;8.87;;
17310;SDS011;8773;43.300;0.394;2023-12-04T00:38:28;11.03;;;9.90;;
17310;SDS011;8773;43.300;0.394;2023-12-04T00:40:57;10.60;;;9.47;;
17310;SDS011;8773;43.300;0.394;2023-12-04T00:43:25;10.50;;;9.43;;
17310;SDS011;8773;43.300;0.394;2023-12-04T00:45:52;9.80;;;8.80;;
17310;SDS011;8773;43.300;0.394;2023-12-04T00:48:19;11.13;;;8.90;;
17310;SDS011;8773;43.300;0.394;2023-12-04T00:50:47;10.77;;;9.73;;
17310;SDS011;8773;43.300;0.394;2023-12-04T00:53:14;9.93;;;8.93;;
17310;SDS011;8773;43.300;0.394;2023-12-04T00:55:42;10.07;;;9.13;;
17310;SDS011;8773;43.300;0.394;2023-12-04T00:58:10;10.03;;;8.97;;
17310;SDS011;8773;43.300;0.394;2023-12-04T01:00:38;10.67;;;9.57;;
17310;SDS011;8773;43.300;0.394;2023-12-04T01:03:05;10.90;;;9.77;;
17310;SDS011;8773;43.300;0.394;2023-12-04T01:05:32;9.90;;;8.93;;
17310;SDS011;8773;43.300;0.394;2023-12-04T01:08:00;10.20;;;9.10;;
17310;SDS011;8773;43.300;0.394;2023-12-04T01:10:27;10.17;;;9.17;;
17310;SDS011;8773;43.300;0.394;2023-12-04T01:12:55;11.03;;;10.00;;
17310;SDS011;8773;43.300;0.394;2023-12-04T01:15:23;10.10;;;9.27;;
17310;SDS011;8773;43.300;0.394;2023-12-04T01:17:51;10.47;;;9.47;;
17310;SDS011;8773;43.300;0.394;2023-12-04T01:20:18;10.60;;;9.27;;
17310;SDS011;8773;43.300;0.394;2023-12-04T01:22:45;10.73;;;9.73;;
17310;SDS011;8773;43.300;0.394;2023-12-04T01:25:13;11.33;;;10.13;;
17310;SDS011;8773;43.300;0.394;2023-12-04T01:27:40;10.77;;;9.67;;
17310;SDS011;8773;43.300;0.394;2023-12-04T01:30:08;10.20;;;8.53;;
17310;SDS011;8773;43.300;0.394;2023-12-04T01:32:38;8.57;;;7.70;;
17310;SDS011;8773;43.300;0.394;2023-12-04T01:35:05;7.53;;;6.93;;
17310;SDS011;8773;43.300;0.394;2023-12-04T01:37:33;7.90;;;7.20;;
17310;SDS011;8773;43.300;0.394;2023-12-04T01:40:01;8.53;;;7.60;;
17310;SDS011;8773;43.300;0.394;2023-12-04T01:42:28;6.93;;;6.23;;
17310;SDS011;8773;43.300;0.394;2023-12-04T01:44:56;7.27;;;6.17;;
17310;SDS011;8773;43.300;0.394;2023-12-04T01:47:23;8.17;;;6.20;;
17310;SDS011;8773;43.300;0.394;2023-12-04T01:49:52;6.70;;;6.10;;
17310;SDS011;8773;43.300;0.394;2023-12-04T01:52:19;6.20;;;5.70;;
17310;SDS011;8773;43.300;0.394;2023-12-04T01:54:46;5.77;;;5.37;;
17310;SDS011;8773;43.300;0.394;2023-12-04T01:57:14;6.10;;;5.70;;
17310;SDS011;8773;43.300;0.394;2023-12-04T01:59:41;5.67;;;5.20;;
17310;SDS011;8773;43.300;0.394;2023-12-04T02:02:09;5.97;;;5.50;;
17310;SDS011;8773;43.300;0.394;2023-12-04T02:04:37;6.53;;;5.90;;
17310;SDS011;8773;43.300;0.394;2023-12-04T02:07:06;6.10;;;5.60;;
17310;SDS011;8773;43.300;0.394;2023-12-04T02:09:34;5.47;;;5.00;;
17310;SDS011;8773;43.300;0.394;2023-12-04T02:12:01;6.03;;;5.43;;
17310;SDS011;8773;43.300;0.394;2023-12-04T02:14:29;6.27;;;5.70;;
17310;SDS011;8773;43.300;0.394;2023-12-04T02:16:57;6.50;;;6.00;;
17310;SDS011;8773;43.300;0.394;2023-12-04T02:19:27;7.37;;;6.63;;
17310;SDS011;8773;43.300;0.394;2023-12-04T02:21:55;7.00;;;6.00;;
17310;SDS011;8773;43.300;0.394;2023-12-04T02:24:24;6.40;;;5.80;;
17310;SDS011;8773;43.300;0.394;2023-12-04T02:26:52;6.90;;;5.80;;
17310;SDS011;8773;43.300;0.394;2023-12-04T02:29:23;7.03;;;5.90;;
17310;SDS011;8773;43.300;0.394;2023-12-04T02:31:56;6.33;;;5.83;;
17310;SDS011;8773;43.300;0.394;2023-12-04T02:34:25;6.37;;;5.77;;
17310;SDS011;8773;43.300;0.394;2023-12-04T02:36:53;5.33;;;4.77;;
17310;SDS011;8773;43.300;0.394;2023-12-04T02:39:21;4.33;;;4.00;;
17310;SDS011;8773;43.300;0.394;2023-12-04T02:41:50;3.87;;;3.57;;
17310;SDS011;8773;43.300;0.394;2023-12-04T02:44:17;4.77;;;4.00;;
17310;SDS011;8773;43.300;0.394;2023-12-04T02:46:45;4.37;;;4.07;;
17310;SDS011;8773;43.300;0.394;2023-12-04T02:49:13;4.30;;;3.90;;
17310;SDS011;8773;43.300;0.394;2023-12-04T02:51:41;3.90;;;3.60;;
17310;SDS011;8773;43.300;0.394;2023-12-04T02:54:08;3.57;;;3.37;;
17310;SDS011;8773;43.300;0.394;2023-12-04T02:56:36;3.17;;;3.00;;
17310;SDS011;8773;43.300;0.394;2023-12-04T02:59:04;3.27;;;3.03;;
17310;SDS011;8773;43.300;0.394;2023-12-04T03:01:32;3.40;;;3.10;;
17310;SDS011;8773;43.300;0.394;2023-12-04T03:03:59;3.10;;;2.90;;
17310;SDS011;8773;43.300;0.394;2023-12-04T03:06:26;3.20;;;3.00;;
17310;SDS011;8773;43.300;0.394;2023-12-04T03:08:54;3.47;;;3.17;;
17310;SDS011;8773;43.300;0.394;2023-12-04T03:11:21;3.60;;;3.40;;
17310;SDS011;8773;43.300;0.394;2023-12-04T03:13:48;3.97;;;3.73;;
17310;SDS011;8773;43.300;0.394;2023-12-04T03:16:17;4.63;;;4.33;;
17310;SDS011;8773;43.300;0.394;2023-12-04T03:18:46;5.03;;;4.60;;
17310;SDS011;8773;43.300;0.394;2023-12-04T03:21:13;4.17;;;3.87;;
17310;SDS011;8773;43.300;0.394;2023-12-04T03:23:40;4.03;;;3.73;;
17310;SDS011;8773;43.300;0.394;2023-12-04T03:26:08;4.33;;;4.03;;
17310;SDS011;8773;43.300;0.394;2023-12-04T03:28:37;4.30;;;4.00;;
17310;SDS011;8773;43.300;0.394;2023-12-04T03:31:05;3.70;;;3.50;;
17310;SDS011;8773;43.300;0.394;2023-12-04T03:33:34;3.77;;;3.57;;
17310;SDS011;8773;43.300;0.394;2023-12-04T03:36:02;3.60;;;3.40;;
17310;SDS011;8773;43.300;0.394;2023-12-04T03:38:30;3.43;;;3.13;;
17310;SDS011;8773;43.300;0.394;2023-12-04T03:40:57;3.00;;;2.80;;
17310;SDS011;8773;43.300;0.394;2023-12-04T03:43:24;3.33;;;3.13;;
17310;SDS011;8773;43.300;0.394;2023-12-04T03:45:52;3.40;;;3.20;;
17310;SDS011;8773;43.300;0.394;2023-12-04T03:48:19;3.50;;;3.20;;
17310;SDS011;8773;43.300;0.394;2023-12-04T03:50:48;2.87;;;2.60;;
17310;SDS011;8773;43.300;0.394;2023-12-04T03:53:15;3.40;;;3.20;;
17310;SDS011;8773;43.300;0.394;2023-12-04T03:55:42;3.37;;;3.17;;
17310;SDS011;8773;43.300;0.394;2023-12-04T03:58:10;3.47;;;3.27;;
17310;SDS011;8773;43.300;0.394;2023-12-04T04:00:37;2.90;;;2.70;;
17310;SDS011;8773;43.300;0.394;2023-12-04T04:03:06;4.27;;;3.20;;
17310;SDS011;8773;43.300;0.394;2023-12-04T04:05:33;3.10;;;2.90;;
17310;SDS011;8773;43.300;0.394;2023-12-04T04:08:02;3.70;;;3.40;;
17310;SDS011;8773;43.300;0.394;2023-12-04T04:10:29;3.37;;;3.00;;
17310;SDS011;8773;43.300;0.394;2023-12-04T04:12:57;3.17;;;2.97;;
17310;SDS011;8773;43.300;0.394;2023-12-04T04:15:24;3.13;;;2.93;;
17310;SDS011;8773;43.300;0.394;2023-12-04T04:17:51;3.40;;;3.10;;
17310;SDS011;8773;43.300;0.394;2023-12-04T04:20:19;3.60;;;3.30;;
17310;SDS011;8773;43.300;0.394;2023-12-04T04:22:47;3.87;;;3.57;;
17310;SDS011;8773;43.300;0.394;2023-12-04T04:25:16;6.43;;;3.60;;
17310;SDS011;8773;43.300;0.394;2023-12-04T04:27:43;3.93;;;3.70;;
17310;SDS011;8773;43.300;0.394;2023-12-04T04:30:11;4.03;;;3.73;;
17310;SDS011;8773;43.300;0.394;2023-12-04T04:32:39;3.57;;;3.37;;
17310;SDS011;8773;43.300;0.394;2023-12-04T04:35:07;4.13;;;3.73;;
17310;SDS011;8773;43.300;0.394;2023-12-04T04:37:34;3.77;;;3.57;;
17310;SDS011;8773;43.300;0.394;2023-12-04T04:40:02;3.70;;;3.50;;
17310;SDS011;8773;43.300;0.394;2023-12-04T04:42:31;4.00;;;3.63;;
17310;SDS011;8773;43.300;0.394;2023-12-04T04:44:59;3.57;;;3.27;;
17310;SDS011;8773;43.300;0.394;2023-12-04T04:47:26;3.60;;;3.40;;
17310;SDS011;8773;43.300;0.394;2023-12-04T04:49:54;3.87;;;3.67;;
17310;SDS011;8773;43.300;0.394;2023-12-04T04:52:21;3.80;;;3.60;;
17310;SDS011;8773;43.300;0.394;2023-12-04T04:54:48;5.30;;;4.80;;
17310;SDS011;8773;43.300;0.394;2023-12-04T04:57:16;6.40;;;5.80;;
17310;SDS011;8773;43.300;0.394;2023-12-04T04:59:44;5.13;;;4.73;;
17310;SDS011;8773;43.300;0.394;2023-12-04T05:02:12;6.57;;;5.93;;
17310;SDS011;8773;43.300;0.394;2023-12-04T05:04:39;6.73;;;5.90;;
17310;SDS011;8773;43.300;0.394;2023-12-04T05:07:06;7.50;;;5.23;;
17310;SDS011;8773;43.300;0.394;2023-12-04T05:09:34;7.17;;;6.47;;
17310;SDS011;8773;43.300;0.394;2023-12-04T05:12:01;6.00;;;5.37;;
17310;SDS011;8773;43.300;0.394;2023-12-04T05:14:29;4.07;;;3.77;;
17310;SDS011;8773;43.300;0.394;2023-12-04T05:16:58;3.57;;;3.37;;
17310;SDS011;8773;43.300;0.394;2023-12-04T05:19:25;6.37;;;3.60;;
17310;SDS011;8773;43.300;0.394;2023-12-04T05:21:52;4.07;;;3.70;;
17310;SDS011;8773;43.300;0.394;2023-12-04T05:24:20;3.43;;;3.23;;
17310;SDS011;8773;43.300;0.394;2023-12-04T05:26:47;11.60;;;6.77;;
17310;SDS011;8773;43.300;0.394;2023-12-04T05:29:15;5.17;;;4.17;;
17310;SDS011;8773;43.300;0.394;2023-12-04T05:31:42;3.30;;;3.10;;
17310;SDS011;8773;43.300;0.394;2023-12-04T05:34:10;2.90;;;2.80;;
17310;SDS011;8773;43.300;0.394;2023-12-04T05:36:38;3.50;;;3.20;;
17310;SDS011;8773;43.300;0.394;2023-12-04T05:39:05;3.43;;;3.23;;
17310;SDS011;8773;43.300;0.394;2023-12-04T05:41:33;4.70;;;4.20;;
17310;SDS011;8773;43.300;0.394;2023-12-04T05:44:00;4.10;;;3.90;;
17310;SDS011;8773;43.300;0.394;2023-12-04T05:46:27;4.53;;;4.23;;
17310;SDS011;8773;43.300;0.394;2023-12-04T05:48:55;5.20;;;4.80;;
17310;SDS011;8773;43.300;0.394;2023-12-04T05:51:24;4.60;;;4.20;;
17310;SDS011;8773;43.300;0.394;2023-12-04T05:53:51;4.60;;;4.20;;
17310;SDS011;8773;43.300;0.394;2023-12-04T05:56:18;4.57;;;4.27;;
17310;SDS011;8773;43.300;0.394;2023-12-04T05:58:45;4.87;;;4.17;;
17310;SDS011;8773;43.300;0.394;2023-12-04T06:01:14;4.37;;;4.07;;
17310;SDS011;8773;43.300;0.394;2023-12-04T06:03:41;3.63;;;3.43;;
17310;SDS011;8773;43.300;0.394;2023-12-04T06:06:08;4.03;;;3.67;;
17310;SDS011;8773;43.300;0.394;2023-12-04T06:08:37;4.17;;;3.87;;
17310;SDS011;8773;43.300;0.394;2023-12-04T06:11:04;4.83;;;4.43;;
17310;SDS011;8773;43.300;0.394;2023-12-04T06:13:32;5.80;;;5.30;;
17310;SDS011;8773;43.300;0.394;2023-12-04T06:15:59;5.30;;;4.80;;
17310;SDS011;8773;43.300;0.394;2023-12-04T06:18:27;4.67;;;4.30;;
17310;SDS011;8773;43.300;0.394;2023-12-04T06:20:55;3.50;;;3.20;;
17310;SDS011;8773;43.300;0.394;2023-12-04T06:23:22;3.53;;;3.20;;
17310;SDS011;8773;43.300;0.394;2023-12-04T06:25:52;3.60;;;3.30;;
17310;SDS011;8773;43.300;0.394;2023-12-04T06:28:21;3.53;;;2.90;;
17310;SDS011;8773;43.300;0.394;2023-12-04T06:30:48;3.40;;;3.20;;
17310;SDS011;8773;43.300;0.394;2023-12-04T06:33:18;3.07;;;2.90;;
17310;SDS011;8773;43.300;0.394;2023-12-04T06:35:46;4.30;;;4.00;;
17310;SDS011;8773;43.300;0.394;2023-12-04T06:38:14;3.50;;;3.30;;
17310;SDS011;8773;43.300;0.394;2023-12-04T06:40:43;4.03;;;3.63;;
17310;SDS011;8773;43.300;0.394;2023-12-04T06:43:12;4.00;;;3.80;;
17310;SDS011;8773;43.300;0.394;2023-12-04T06:45:40;5.90;;;5.50;;
17310;SDS011;8773;43.300;0.394;2023-12-04T06:48:08;6.67;;;6.17;;
17310;SDS011;8773;43.300;0.394;2023-12-04T06:50:37;7.00;;;6.30;;
17310;SDS011;8773;43.300;0.394;2023-12-04T06:53:04;6.73;;;6.23;;
17310;SDS011;8773;43.300;0.394;2023-12-04T06:55:32;5.70;;;5.37;;
17310;SDS011;8773;43.300;0.394;2023-12-04T06:57:59;5.93;;;5.47;;
17310;SDS011;8773;43.300;0.394;2023-12-04T07:00:28;5.83;;;5.43;;
17310;SDS011;8773;43.300;0.394;2023-12-04T07:02:56;5.80;;;5.40;;
17310;SDS011;8773;43.300;0.394;2023-12-04T07:05:23;7.83;;;6.77;;
17310;SDS011;8773;43.300;0.394;2023-12-04T07:07:51;7.70;;;7.00;;
17310;SDS011;8773;43.300;0.394;2023-12-04T07:10:18;10.30;;;9.23;;
17310;SDS011;8773;43.300;0.394;2023-12-04T07:12:45;10.27;;;9.27;;
17310;SDS011;8773;43.300;0.394;2023-12-04T07:15:13;9.33;;;8.43;;
17310;SDS011;8773;43.300;0.394;2023-12-04T07:17:42;9.13;;;8.33;;
17310;SDS011;8773;43.300;0.394;2023-12-04T07:20:09;10.60;;;9.70;;
17310;SDS011;8773;43.300;0.394;2023-12-04T07:22:37;8.50;;;7.70;;
17310;SDS011;8773;43.300;0.394;2023-12-04T07:25:05;8.17;;;7.47;;
17310;SDS011;8773;43.300;0.394;2023-12-04T07:27:33;7.10;;;6.57;;
17310;SDS011;8773;43.300;0.394;2023-12-04T07:30:00;10.47;;;9.57;;
17310;SDS011;8773;43.300;0.394;2023-12-04T07:32:28;10.47;;;9.70;;
17310;SDS011;8773;43.300;0.394;2023-12-04T07:34:57;9.30;;;8.50;;
17310;SDS011;8773;43.300;0.394;2023-12-04T07:37:24;10.23;;;9.13;;
17310;SDS011;8773;43.300;0.394;2023-12-04T07:39:51;9.73;;;8.93;;
17310;SDS011;8773;43.300;0.394;2023-12-04T07:42:19;9.43;;;8.63;;
17310;SDS011;8773;43.300;0.394;2023-12-04T07:44:46;8.67;;;8.07;;
17310;SDS011;8773;43.300;0.394;2023-12-04T07:47:13;8.90;;;8.10;;
17310;SDS011;8773;43.300;0.394;2023-12-04T07:49:41;8.60;;;7.37;;
17310;SDS011;8773;43.300;0.394;2023-12-04T07:52:10;8.93;;;8.13;;
17310;SDS011;8773;43.300;0.394;2023-12-04T07:54:38;10.03;;;8.97;;
17310;SDS011;8773;43.300;0.394;2023-12-04T07:57:05;12.10;;;10.97;;
17310;SDS011;8773;43.300;0.394;2023-12-04T07:59:32;11.87;;;10.77;;
17310;SDS011;8773;43.300;0.394;2023-12-04T08:02:00;12.47;;;11.37;;
17310;SDS011;8773;43.300;0.394;2023-12-04T08:04:27;7.13;;;6.30;;
17310;SDS011;8773;43.300;0.394;2023-12-04T08:06:54;7.43;;;6.83;;
17310;SDS011;8773;43.300;0.394;2023-12-04T08:09:23;7.57;;;6.97;;
17310;SDS011;8773;43.300;0.394;2023-12-04T08:11:51;9.10;;;8.30;;
17310;SDS011;8773;43.300;0.394;2023-12-04T08:14:21;13.83;;;12.43;;
17310;SDS011;8773;43.300;0.394;2023-12-04T08:16:48;9.60;;;8.80;;
17310;SDS011;8773;43.300;0.394;2023-12-04T08:19:15;7.33;;;6.63;;
17310;SDS011;8773;43.300;0.394;2023-12-04T08:21:43;11.63;;;10.57;;
17310;SDS011;8773;43.300;0.394;2023-12-04T08:24:10;9.00;;;8.20;;
17310;SDS011;8773;43.300;0.394;2023-12-04T08:26:39;8.23;;;7.43;;
17310;SDS011;8773;43.300;0.394;2023-12-04T08:29:06;9.20;;;8.30;;
17310;SDS011;8773;43.300;0.394;2023-12-04T08:31:34;8.63;;;7.93;;
17310;SDS011;8773;43.300;0.394;2023-12-04T08:34:01;7.73;;;7.03;;
17310;SDS011;8773;43.300;0.394;2023-12-04T08:36:29;7.03;;;6.43;;
17310;SDS011;8773;43.300;0.394;2023-12-04T08:39:10;39.10;;;30.27;;
17310;SDS011;8773;43.300;0.394;2023-12-04T08:41:37;11.63;;;10.50;;
17310;SDS011;8773;43.300;0.394;2023-12-04T08:44:17;44.80;;;27.20;;
17310;SDS011;8773;43.300;0.394;2023-12-04T08:46:44;33.00;;;21.10;;
17310;SDS011;8773;43.300;0.394;2023-12-04T08:49:11;24.30;;;17.93;;
17310;SDS011;8773;43.300;0.394;2023-12-04T08:51:39;16.27;;;13.63;;
17310;SDS011;8773;43.300;0.394;2023-12-04T08:54:06;8.70;;;7.90;;
17310;SDS011;8773;43.300;0.394;2023-12-04T08:56:37;8.87;;;8.00;;
17310;SDS011;8773;43.300;0.394;2023-12-04T08:59:05;7.53;;;6.93;;
17310;SDS011;8773;43.300;0.394;2023-12-04T09:01:33;11.50;;;5.83;;
17310;SDS011;8773;43.300;0.394;2023-12-04T09:04:00;6.10;;;5.70;;
17310;SDS011;8773;43.300;0.394;2023-12-04T09:06:28;7.80;;;7.10;;
17310;SDS011;8773;43.300;0.394;2023-12-04T09:08:58;7.47;;;6.87;;
17310;SDS011;8773;43.300;0.394;2023-12-04T09:11:34;6.30;;;5.80;;
17310;SDS011;8773;43.300;0.394;2023-12-04T09:14:02;12.00;;;10.80;;
17310;SDS011;8773;43.300;0.394;2023-12-04T09:16:31;12.37;;;9.77;;
17310;SDS011;8773;43.300;0.394;2023-12-04T09:18:58;5.63;;;5.20;;
17310;SDS011;8773;43.300;0.394;2023-12-04T09:21:26;4.67;;;4.27;;
17310;SDS011;8773;43.300;0.394;2023-12-04T09:23:54;4.27;;;3.97;;
17310;SDS011;8773;43.300;0.394;2023-12-04T09:26:21;3.67;;;3.50;;
17310;SDS011;8773;43.300;0.394;2023-12-04T09:28:48;3.60;;;3.40;;
17310;SDS011;8773;43.300;0.394;2023-12-04T09:31:16;2.30;;;2.20;;
17310;SDS011;8773;43.300;0.394;2023-12-04T09:33:45;1.80;;;1.70;;
17310;SDS011;8773;43.300;0.394;2023-12-04T09:36:13;2.00;;;1.90;;
17310;SDS011;8773;43.300;0.394;2023-12-04T09:38:40;1.30;;;1.30;;
17310;SDS011;8773;43.300;0.394;2023-12-04T09:41:08;1.10;;;1.10;;
17310;SDS011;8773;43.300;0.394;2023-12-04T09:43:37;0.80;;;0.80;;
17310;SDS011;8773;43.300;0.394;2023-12-04T09:46:06;0.90;;;0.90;;
17310;SDS011;8773;43.300;0.394;2023-12-04T09:48:35;1.00;;;1.00;;
17310;SDS011;8773;43.300;0.394;2023-12-04T09:51:06;0.70;;;0.70;;
17310;SDS011;8773;43.300;0.394;2023-12-04T09:53:35;0.80;;;0.80;;
17310;SDS011;8773;43.300;0.394;2023-12-04T09:56:03;0.70;;;0.70;;
17310;SDS011;8773;43.300;0.394;2023-12-04T09:58:31;0.60;;;0.60;;
17310;SDS011;8773;43.300;0.394;2023-12-04T10:01:00;0.57;;;0.57;;
17310;SDS011;8773;43.300;0.394;2023-12-04T10:03:28;0.60;;;0.60;;
17310;SDS011;8773;43.300;0.394;2023-12-04T10:05:56;0.77;;;0.77;;
17310;SDS011;8773;43.300;0.394;2023-12-04T10:08:25;0.60;;;0.60;;
17310;SDS011;8773;43.300;0.394;2023-12-04T10:10:52;0.80;;;0.80;;
17310;SDS011;8773;43.300;0.394;2023-12-04T10:13:19;0.67;;;0.67;;
17310;SDS011;8773;43.300;0.394;2023-12-04T10:16:07;0.47;;;0.47;;
17310;SDS011;8773;43.300;0.394;2023-12-04T10:18:35;0.60;;;0.60;;
17310;SDS011;8773;43.300;0.394;2023-12-04T10:21:02;0.70;;;0.70;;
17310;SDS011;8773;43.300;0.394;2023-12-04T10:23:38;0.80;;;0.80;;
17310;SDS011;8773;43.300;0.394;2023-12-04T10:26:07;0.50;;;0.50;;
17310;SDS011;8773;43.300;0.394;2023-12-04T10:28:34;1.00;;;1.00;;
17310;SDS011;8773;43.300;0.394;2023-12-04T10:31:02;0.50;;;0.50;;
17310;SDS011;8773;43.300;0.394;2023-12-04T10:33:30;0.50;;;0.50;;
17310;SDS011;8773;43.300;0.394;2023-12-04T10:35:57;0.40;;;0.40;;
17310;SDS011;8773;43.300;0.394;2023-12-04T10:38:25;0.50;;;0.50;;
17310;SDS011;8773;43.300;0.394;2023-12-04T10:40:53;0.50;;;0.50;;
17310;SDS011;8773;43.300;0.394;2023-12-04T10:43:21;1.20;;;0.83;;
17310;SDS011;8773;43.300;0.394;2023-12-04T10:45:49;0.40;;;0.40;;
17310;SDS011;8773;43.300;0.394;2023-12-04T10:48:17;0.50;;;0.50;;
17310;SDS011;8773;43.300;0.394;2023-12-04T10:50:47;0.40;;;0.40;;
17310;SDS011;8773;43.300;0.394;2023-12-04T10:53:15;0.53;;;0.53;;
17310;SDS011;8773;43.300;0.394;2023-12-04T10:55:44;0.53;;;0.53;;
17310;SDS011;8773;43.300;0.394;2023-12-04T10:58:13;0.67;;;0.67;;
17310;SDS011;8773;43.300;0.394;2023-12-04T11:00:43;0.30;;;0.30;;
17310;SDS011;8773;43.300;0.394;2023-12-04T11:03:13;0.40;;;0.40;;
17310;SDS011;8773;43.300;0.394;2023-12-04T11:05:45;0.60;;;0.60;;
17310;SDS011;8773;43.300;0.394;2023-12-04T11:08:18;0.40;;;0.40;;
17310;SDS011;8773;43.300;0.394;2023-12-04T11:10:47;0.40;;;0.40;;
17310;SDS011;8773;43.300;0.394;2023-12-04T11:13:23;0.43;;;0.43;;
17310;SDS011;8773;43.300;0.394;2023-12-04T11:15:55;0.50;;;0.50;;
17310;SDS011;8773;43.300;0.394;2023-12-04T11:18:31;0.40;;;0.40;;
17310;SDS011;8773;43.300;0.394;2023-12-04T11:21:03;0.47;;;0.47;;
17310;SDS011;8773;43.300;0.394;2023-12-04T11:23:35;1.13;;;0.50;;
17310;SDS011;8773;43.300;0.394;2023-12-04T11:26:07;0.40;;;0.40;;
17310;SDS011;8773;43.300;0.394;2023-12-04T11:28:37;0.60;;;0.60;;
17310;SDS011;8773;43.300;0.394;2023-12-04T11:31:06;0.73;;;0.50;;
17310;SDS011;8773;43.300;0.394;2023-12-04T11:33:34;0.43;;;0.43;;
17310;SDS011;8773;43.300;0.394;2023-12-04T11:36:06;1.50;;;0.60;;
17310;SDS011;8773;43.300;0.394;2023-12-04T11:38:43;3.30;;;2.27;;
17310;SDS011;8773;43.300;0.394;2023-12-04T11:41:17;0.50;;;0.50;;
17310;SDS011;8773;43.300;0.394;2023-12-04T11:43:54;0.73;;;0.73;;
17310;SDS011;8773;43.300;0.394;2023-12-04T11:46:23;0.60;;;0.60;;
17310;SDS011;8773;43.300;0.394;2023-12-04T11:48:53;0.80;;;0.80;;
17310;SDS011;8773;43.300;0.394;2023-12-04T11:54:14;0.67;;;0.67;;
17310;SDS011;8773;43.300;0.394;2023-12-04T11:56:52;1.17;;;1.17;;
17310;SDS011;8773;43.300;0.394;2023-12-04T11:59:25;0.50;;;0.50;;
17310;SDS011;8773;43.300;0.394;2023-12-04T12:01:54;1.00;;;0.90;;
17310;SDS011;8773;43.300;0.394;2023-12-04T12:04:22;0.63;;;0.50;;
17310;SDS011;8773;43.300;0.394;2023-12-04T12:06:50;0.60;;;0.60;;
17310;SDS011;8773;43.300;0.394;2023-12-04T12:09:18;9.80;;;5.60;;
17310;SDS011;8773;43.300;0.394;2023-12-04T12:11:45;1.43;;;1.30;;
17310;SDS011;8773;43.300;0.394;2023-12-04T12:14:13;1.03;;;0.83;;
17310;SDS011;8773;43.300;0.394;2023-12-04T12:16:42;1.50;;;1.40;;
17310;SDS011;8773;43.300;0.394;2023-12-04T12:19:09;0.83;;;0.83;;
17310;SDS011;8773;43.300;0.394;2023-12-04T12:21:37;0.80;;;0.80;;
17310;SDS011;8773;43.300;0.394;2023-12-04T12:24:05;0.87;;;0.63;;
17310;SDS011;8773;43.300;0.394;2023-12-04T12:26:33;0.70;;;0.70;;
17310;SDS011;8773;43.300;0.394;2023-12-04T12:29:00;0.60;;;0.60;;
17310;SDS011;8773;43.300;0.394;2023-12-04T12:31:28;0.50;;;0.50;;
17310;SDS011;8773;43.300;0.394;2023-12-04T12:33:56;0.73;;;0.60;;
17310;SDS011;8773;43.300;0.394;2023-12-04T12:36:24;0.80;;;0.80;;
17310;SDS011;8773;43.300;0.394;2023-12-04T12:38:52;0.60;;;0.60;;
17310;SDS011;8773;43.300;0.394;2023-12-04T12:41:20;0.63;;;0.60;;
17310;SDS011;8773;43.300;0.394;2023-12-04T12:43:50;0.90;;;0.90;;
17310;SDS011;8773;43.300;0.394;2023-12-04T12:46:18;0.77;;;0.77;;
17310;SDS011;8773;43.300;0.394;2023-12-04T12:48:46;1.03;;;0.80;;
17310;SDS011;8773;43.300;0.394;2023-12-04T12:51:16;0.97;;;0.97;;
17310;SDS011;8773;43.300;0.394;2023-12-04T12:53:44;0.80;;;0.80;;
17310;SDS011;8773;43.300;0.394;2023-12-04T12:56:18;0.80;;;0.80;;
17310;SDS011;8773;43.300;0.394;2023-12-04T12:58:45;0.67;;;0.67;;
17310;SDS011;8773;43.300;0.394;2023-12-04T13:01:13;0.50;;;0.50;;
17310;SDS011;8773;43.300;0.394;2023-12-04T13:03:40;1.03;;;0.80;;
17310;SDS011;8773;43.300;0.394;2023-12-04T13:06:12;0.80;;;0.80;;
17310;SDS011;8773;43.300;0.394;2023-12-04T13:08:40;2.07;;;1.97;;
17310;SDS011;8773;43.300;0.394;2023-12-04T13:11:08;0.60;;;0.60;;
17310;SDS011;8773;43.300;0.394;2023-12-04T13:13:35;0.90;;;0.90;;
17310;SDS011;8773;43.300;0.394;2023-12-04T13:16:03;0.70;;;0.70;;
17310;SDS011;8773;43.300;0.394;2023-12-04T13:18:31;0.70;;;0.70;;
17310;SDS011;8773;43.300;0.394;2023-12-04T13:20:59;0.60;;;0.60;;
17310;SDS011;8773;43.300;0.394;2023-12-04T13:23:26;0.77;;;0.77;;
17310;SDS011;8773;43.300;0.394;2023-12-04T13:25:55;0.83;;;0.50;;
17310;SDS011;8773;43.300;0.394;2023-12-04T13:28:23;0.50;;;0.50;;
17310;SDS011;8773;43.300;0.394;2023-12-04T13:31:02;0.67;;;0.67;;
17310;SDS011;8773;43.300;0.394;2023-12-04T13:33:30;0.60;;;0.60;;
17310;SDS011;8773;43.300;0.394;2023-12-04T13:35:57;0.60;;;0.60;;
17310;SDS011;8773;43.300;0.394;2023-12-04T13:38:25;1.80;;;0.70;;
17310;SDS011;8773;43.300;0.394;2023-12-04T13:41:02;0.70;;;0.70;;
17310;SDS011;8773;43.300;0.394;2023-12-04T13:43:30;0.50;;;0.50;;
17310;SDS011;8773;43.300;0.394;2023-12-04T13:45:57;0.87;;;0.77;;
17310;SDS011;8773;43.300;0.394;2023-12-04T13:48:25;0.77;;;0.77;;
17310;SDS011;8773;43.300;0.394;2023-12-04T13:50:52;0.80;;;0.80;;
17310;SDS011;8773;43.300;0.394;2023-12-04T13:53:20;0.80;;;0.80;;
17310;SDS011;8773;43.300;0.394;2023-12-04T13:55:47;0.77;;;0.73;;
17310;SDS011;8773;43.300;0.394;2023-12-04T13:58:16;0.80;;;0.80;;
17310;SDS011;8773;43.300;0.394;2023-12-04T14:00:43;0.70;;;0.70;;
17310;SDS011;8773;43.300;0.394;2023-12-04T14:03:10;1.17;;;0.60;;
17310;SDS011;8773;43.300;0.394;2023-12-04T14:05:38;0.80;;;0.80;;
17310;SDS011;8773;43.300;0.394;2023-12-04T14:08:06;0.77;;;0.77;;
17310;SDS011;8773;43.300;0.394;2023-12-04T14:10:34;0.90;;;0.90;;
17310;SDS011;8773;43.300;0.394;2023-12-04T14:13:01;2.80;;;1.00;;
17310;SDS011;8773;43.300;0.394;2023-12-04T14:15:30;1.10;;;1.00;;
17310;SDS011;8773;43.300;0.394;2023-12-04T14:17:57;0.93;;;0.93;;
17310;SDS011;8773;43.300;0.394;2023-12-04T14:20:25;1.60;;;1.20;;
17310;SDS011;8773;43.300;0.394;2023-12-04T14:22:52;1.90;;;1.30;;
17310;SDS011;8773;43.300;0.394;2023-12-04T14:25:20;1.50;;;1.50;;
17310;SDS011;8773;43.300;0.394;2023-12-04T14:27:47;1.40;;;1.40;;
17310;SDS011;8773;43.300;0.394;2023-12-04T14:30:14;1.50;;;1.40;;
17310;SDS011;8773;43.300;0.394;2023-12-04T14:32:43;1.10;;;1.10;;
17310;SDS011;8773;43.300;0.394;2023-12-04T14:35:14;1.53;;;1.53;;
17310;SDS011;8773;43.300;0.394;2023-12-04T14:37:42;1.53;;;1.50;;
17310;SDS011;8773;43.300;0.394;2023-12-04T14:40:11;1.90;;;1.80;;
17310;SDS011;8773;43.300;0.394;2023-12-04T14:42:39;1.27;;;1.27;;
17310;SDS011;8773;43.300;0.394;2023-12-04T14:45:06;1.30;;;1.20;;
17310;SDS011;8773;43.300;0.394;2023-12-04T14:47:34;1.53;;;1.53;;
17310;SDS011;8773;43.300;0.394;2023-12-04T14:50:03;1.43;;;1.43;;
17310;SDS011;8773;43.300;0.394;2023-12-04T14:52:31;1.63;;;1.60;;
17310;SDS011;8773;43.300;0.394;2023-12-04T14:54:58;1.70;;;1.63;;
17310;SDS011;8773;43.300;0.394;2023-12-04T14:57:26;1.70;;;1.60;;
17310;SDS011;8773;43.300;0.394;2023-12-04T14:59:53;1.90;;;1.80;;
17310;SDS011;8773;43.300;0.394;2023-12-04T15:02:20;1.43;;;1.40;;
17310;SDS011;8773;43.300;0.394;2023-12-04T15:04:48;1.30;;;1.30;;
17310;SDS011;8773;43.300;0.394;2023-12-04T15:07:17;1.27;;;1.27;;
17310;SDS011;8773;43.300;0.394;2023-12-04T15:09:44;1.10;;;1.10;;